This demonstration page uses our WeatherBlox Daily Observations layout. Learn more.

Left ArrowRight Arrow

41.55636, -103.73856

Hourly Observations for January 8, 2021

Temp ( °F °C ) Dew Point ( °F °C ) Humidity (%) Winds ( mph kmh ) Pressure ( in mb ) Visibility ( mi km ) Precip ( " mm )
12:58 am 00:58 Clear 24 -4.7 19 -7.4 82 82 W 7 11 30.28 1025 10 16.0934 0 0
1:58 am 01:58 Clear 24 -4.4 21 -6 89 89 WNW 9 15 30.3 1026 10 16.0934 0 0
2:58 am 02:58 Clear 25 -3.8 22 -5.7 87 87 WNW 12 19 30.31 1026 10 16.0934 0 0
4:58 am 04:58 Mostly Cloudy with Light Snow Showers 28 -2.1 26 -3.6 90 90 NNW 8 13 30.32 1027 10 16.0934 0 0
5:58 am 05:58 Mostly Cloudy with Light Snow 29 -1.4 27 -2.6 92 92 NNW 9 15 30.32 1027 10 16.0934 0 0
6:58 am 06:58 Mostly Cloudy 29 -1.4 27 -2.8 90 90 NNW 8 13 30.34 1027 10 16.0934 0 0
7:58 am 07:58 Mostly Cloudy 29 -1.7 27 -2.6 94 94 NNW 8 13 30.35 1028 10 16.0934 0 0
8:58 am 08:58 Mostly Cloudy 31 -0.6 28 -2.1 90 90 NW 6 9 30.37 1029 10 16.0934 0 0
9:56 am 09:56 Mostly Cloudy 34 1.1 29 -1.9 81 81 NW 9 15 30.36 1028 10 16.0934 0 0
10:56 am 10:56 Cloudy 36 2.1 27 -2.6 71 71 NW 8 13 30.34 1027 10 16.0934 0 0
11:56 am 11:56 Mostly Cloudy 38 3.2 27 -3 64 64 NNW 8 13 30.31 1026 10 16.0934 0 0
12:56 pm 12:56 Mostly Cloudy 39 4 26 -3.6 58 58 N 9 15 30.29 1026 10 16.0934 0 0
1:56 pm 13:56 Cloudy 40 4.3 25 -4.1 55 55 NNW 14 22 30.27 1025 10 16.0934 0 0
2:56 pm 14:56 Mostly Sunny 40 4.3 24 -4.6 53 53 N 9 15 30.27 1025 10 16.0934 0 0
3:56 pm 15:56 Partly Cloudy 38 3.5 25 -3.8 59 59 N 8 13 30.27 1025 10 16.0934 0 0
4:58 pm 16:58 Clear 31 -0.5 24 -4.2 76 76 NNE 8 13 30.3 1026 10 16.0934 0 0
5:56 pm 17:56 Mostly Cloudy 29 -1.5 24 -4.3 81 81 SSW 3 6 30.3 1026 10 16.0934 0 0
6:56 pm 18:56 Clear 31 -0.4 26 -3.4 80 80 Calm 30.31 1026 10 16.0934 0 0
7:56 pm 19:56 Mostly Clear 24 -4.5 22 -5.5 93 93 S 6 9 30.35 1028 10 16.0934 0 0
8:56 pm 20:56 Mostly Cloudy 20 -6.6 18 -7.6 93 93 S 6 9 30.35 1028 10 16.0934 0 0
9:56 pm 21:56 Mostly Cloudy 29 -1.5 27 -2.6 92 92 S 7 11 30.3 1026 10 16.0934 0 0
10:56 pm 22:56 Mostly Cloudy 29 -1.5 25 -3.9 84 84 Calm 30.29 1026 10 16.0934 0 0
11:56 pm 23:56 Mostly Cloudy 27 -2.6 25 -4.1 90 90 SW 5 7 30.28 1025 10 16.0934 0 0

Powered by AerisWeather